Stratton, Texas
Current Conditions -  °F | °C
As of 3:51 PM on Friday 24 Oct 2014 (Local Time) from KVCT Reporting Station
Clear Clear  
Wind Chill: 87°   Ceiling: Unl
Heat Index: 87°   Visibility: 10mi
Dew Point: 57°   Wind: 6mph
Humidity: 36%   Direction: 50°NE
Pressure: 30.08"   Gusts: NA
Location:  29.0941°N, 97.191°W
Report Text: KVCT 242051Z 05005KT 10SM CLR 31/14 A3008 RMK AO2 SLP183 T03060139 56024
Loading
Personal Weather Stations






























Interactive Weather Map
Tropical Storm Tracking
New forecast layout! Learn more

10-Day Weather Forecast

Advertisements
Track Severe Weather on mobile